Time;durP1;ratioP1;P1;durP2;ratioP2;P2;SDS_P1;SDS_P2;PMS_P1;PMS_P2;Temp;Humidity;BMP_temperature;BMP_pressure;BME280_temperature;BME280_humidity;BME280_pressure;Samples;Min_cycle;Max_cycle;Signal;HPM_P1;HPM_P2
2022/01/13 00:01:41;;;;;;;8.70;3.20;;;;;;;1.36;100.00;100963.42;105483;1271;59648;-70
2022/01/13 00:05:38;;;;;;;;;;;;;;;;;;;;;
2022/01/13 00:08:32;;;;;;;7.80;2.90;;;;;;;1.44;100.00;100969.70;105458;1271;73282;-71
2022/01/13 00:12:08;;;;;;;8.20;2.90;;;;;;;1.47;100.00;100971.89;105454;1274;66117;-70
2022/01/13 00:16:23;;;;;;;8.80;3.60;;;;;;;1.50;100.00;100977.40;105352;1271;73491;-70
2022/01/13 00:30:26;;;;;;;7.30;2.90;;;;;;;1.67;100.00;100985.54;105180;1272;67945;-70
2022/01/13 00:34:20;;;;;;;7.80;3.30;;;;;;;1.67;100.00;100972.77;105067;1271;73084;-71
2022/01/13 00:37:24;;;;;;;7.60;3.00;;;;;;;1.67;100.00;100969.10;105381;1274;59732;-71
2022/01/13 00:43:49;;;;;;;7.30;2.50;;;;;;;1.66;100.00;100951.29;105480;1271;73374;-71
2022/01/13 00:50:30;;;;;;;7.90;3.40;;;;;;;1.65;100.00;100916.31;105185;1271;71596;-72
2022/01/13 00:54:07;;;;;;;7.60;2.30;;;;;;;1.66;100.00;100915.41;105195;1271;59880;-71
2022/01/13 00:57:33;;;;;;;;;;;;;;;;;;;;;
2022/01/13 01:02:08;;;;;;;7.40;2.70;;;;;;;1.68;100.00;100883.17;105271;1272;74645;-71
2022/01/13 01:05:33;;;;;;;7.70;2.90;;;;;;;1.70;100.00;100876.30;105308;1271;68284;-74
2022/01/13 01:08:30;;;;;;;7.70;2.60;;;;;;;1.72;100.00;100863.48;104704;1271;1002551;-69
2022/01/13 01:11:20;;;;;;;6.60;2.20;;;;;;;1.73;100.00;100879.54;105105;1271;59651;-70
2022/01/13 01:14:58;;;;;;;7.60;2.40;;;;;;;1.76;100.00;100883.84;105088;1274;60504;-70
2022/01/13 01:22:39;;;;;;;6.60;1.90;;;;;;;1.79;100.00;100861.19;104808;1281;65860;-70
2022/01/13 01:30:40;;;;;;;5.70;1.90;;;;;;;1.85;100.00;100853.98;104605;1281;59684;-70
2022/01/13 01:33:45;;;;;;;5.80;1.90;;;;;;;1.86;100.00;100850.47;104642;1281;59762;-70
2022/01/13 01:37:26;;;;;;;7.40;2.60;;;;;;;1.86;100.00;100833.33;104267;1281;72253;-71
2022/01/13 01:41:10;;;;;;;5.60;2.10;;;;;;;1.86;100.00;100830.34;104345;1281;68214;-71
2022/01/13 01:50:36;;;;;;;5.90;1.90;;;;;;;1.85;100.00;100826.36;104870;1280;59821;-71
2022/01/13 01:54:25;;;;;;;6.20;2.10;;;;;;;1.85;100.00;100823.19;104544;1281;59720;-70
2022/01/13 02:02:43;;;;;;;;;;;;;;;;;;;;;
2022/01/13 02:06:55;;;;;;;6.20;2.00;;;;;;;1.91;100.00;100796.95;104422;1282;71544;-70
2022/01/13 02:10:04;;;;;;;6.20;2.00;;;;;;;1.93;100.00;100781.84;104332;1283;59743;-70
2022/01/13 02:14:33;;;;;;;7.70;2.70;;;;;;;1.92;100.00;100772.59;104273;1286;59749;-70
2022/01/13 02:23:12;;;;;;;;;;;;;;;;;;;;;
2022/01/13 02:28:26;;;;;;;5.50;2.10;;;;;;;2.00;100.00;100718.06;102850;1297;72712;-70
2022/01/13 02:36:17;;;;;;;6.70;1.90;;;;;;;2.10;100.00;100723.21;103359;1297;60387;-70
2022/01/13 02:39:58;;;;;;;6.60;1.80;;;;;;;2.16;100.00;100717.21;102008;1310;600378;-71
2022/01/13 02:43:18;;;;;;;7.00;2.30;;;;;;;2.16;100.00;100707.42;104090;1285;59305;-71
2022/01/13 02:52:28;;;;;;;;;;;;;;;;;;;;;
2022/01/13 02:55:35;;;;;;;6.10;1.70;;;;;;;2.23;100.00;100678.65;101386;1290;67317;-71
2022/01/13 02:58:55;;;;;;;6.20;1.70;;;;;;;2.25;100.00;100673.88;103885;1286;70860;-71
2022/01/13 03:03:12;;;;;;;7.00;2.40;;;;;;;2.27;100.00;100670.66;103596;1286;59259;-71
2022/01/13 03:08:12;;;;;;;6.50;1.90;;;;;;;2.32;100.00;100676.60;104039;1286;59539;-71
2022/01/13 03:12:09;;;;;;;6.20;1.80;;;;;;;2.36;100.00;100663.48;104378;1293;69816;-72
2022/01/13 03:15:31;;;;;;;5.80;1.90;;;;;;;2.40;100.00;100659.71;102912;1297;67992;-72
2022/01/13 03:19:36;;;;;;;5.50;1.60;;;;;;;2.43;100.00;100649.95;103063;1294;73336;-71
2022/01/13 03:23:23;;;;;;;5.80;1.90;;;;;;;2.47;100.00;100644.02;102680;1300;59451;-71
2022/01/13 03:26:47;;;;;;;5.90;2.00;;;;;;;2.50;100.00;100645.33;102325;1300;60913;-71
2022/01/13 03:30:59;;;;;;;5.70;1.90;;;;;;;2.53;100.00;100656.79;102597;1292;73161;-70
2022/01/13 03:33:54;;;;;;;6.80;2.00;;;;;;;2.55;100.00;100653.73;103275;1292;68096;-70
2022/01/13 03:37:15;;;;;;;6.70;2.00;;;;;;;2.59;100.00;100672.16;103821;1290;74043;-70
2022/01/13 03:40:21;;;;;;;7.60;2.50;;;;;;;2.62;100.00;100677.88;103664;1290;59475;-70
2022/01/13 03:44:37;;;;;;;5.60;1.80;;;;;;;2.64;100.00;100671.99;103285;1291;61269;-71
2022/01/13 03:48:15;;;;;;;6.40;2.40;;;;;;;2.67;100.00;100658.41;104077;1284;70440;-70
2022/01/13 03:52:00;;;;;;;5.40;1.80;;;;;;;2.69;100.00;100664.81;104264;1285;72131;-70
2022/01/13 03:55:40;;;;;;;6.40;1.90;;;;;;;2.72;100.00;100667.67;104062;1284;72974;-70
2022/01/13 03:59:23;;;;;;;6.10;1.90;;;;;;;2.73;100.00;100661.50;104418;1277;59417;-70
2022/01/13 04:06:41;;;;;;;7.60;2.30;;;;;;;2.75;100.00;100658.64;105477;1274;70631;-71
2022/01/13 04:24:55;;;;;;;6.40;1.90;;;;;;;2.82;100.00;100621.05;104466;1284;60574;-72
2022/01/13 04:33:04;;;;;;;6.50;2.20;;;;;;;2.90;100.00;100633.92;103646;1289;67805;-74
2022/01/13 04:37:02;;;;;;;7.00;2.40;;;;;;;2.94;100.00;100597.84;103869;1289;73133;-73
2022/01/13 04:41:24;;;;;;;;;;;;;;;;;;;;;
2022/01/13 04:44:47;;;;;;;7.90;2.60;;;;;;;2.99;100.00;100574.17;103506;1290;60586;-71
2022/01/13 04:48:18;;;;;;;;;;;;;;;;;;;;;
2022/01/13 04:51:54;;;;;;;7.10;2.70;;;;;;;3.01;100.00;100576.52;103686;1289;68405;-71
2022/01/13 04:55:29;;;;;;;7.60;2.30;;;;;;;3.05;100.00;100571.14;104025;1284;71912;-71
2022/01/13 04:59:02;;;;;;;7.00;2.30;;;;;;;3.07;100.00;100565.45;104070;1284;59982;-70
2022/01/13 05:02:49;;;;;;;7.10;2.70;;;;;;;3.12;100.00;100572.62;104568;1274;60508;-71
2022/01/13 05:05:51;;;;;;;7.20;2.80;;;;;;;3.17;100.00;100575.41;105349;1274;72032;-73
2022/01/13 05:22:49;;;;;;;7.10;2.80;;;;;;;3.30;100.00;100550.72;105772;1273;59319;-73
2022/01/13 05:25:48;;;;;;;8.10;2.90;;;;;;;3.32;100.00;100562.55;105280;1274;71819;-72
2022/01/13 05:28:50;;;;;;;8.70;2.80;;;;;;;3.34;100.00;100564.73;105194;1274;68205;-73
2022/01/13 05:32:13;;;;;;;6.70;2.30;;;;;;;3.38;100.00;100563.34;105186;1274;72859;-72
2022/01/13 05:35:33;;;;;;;6.90;2.70;;;;;;;3.39;100.00;100549.77;104963;1274;60241;-73
2022/01/13 05:43:06;;;;;;;7.60;2.80;;;;;;;3.48;100.00;100535.96;105183;1274;70151;-71
2022/01/13 05:46:10;;;;;;;8.50;2.70;;;;;;;3.48;100.00;100532.08;105331;1274;68238;-70
2022/01/13 05:49:12;;;;;;;7.70;2.70;;;;;;;3.51;100.00;100531.94;105415;1274;72842;-73
2022/01/13 05:57:17;;;;;;;8.00;2.70;;;;;;;3.54;100.00;100538.31;104959;1280;60421;-71
2022/01/13 06:09:46;;;;;;;8.80;2.40;;;;;;;3.55;100.00;100583.20;104978;1280;72638;-72
2022/01/13 06:13:12;;;;;;;8.40;2.60;;;;;;;3.54;100.00;100593.79;104699;1280;59596;-73
2022/01/13 06:16:33;;;;;;;6.50;2.10;;;;;;;3.54;100.00;100612.55;104703;1280;60706;-72
2022/01/13 06:20:25;;;;;;;8.10;2.40;;;;;;;3.55;100.00;100608.66;104676;1281;70606;-71
2022/01/13 06:23:39;;;;;;;7.10;2.30;;;;;;;3.54;100.00;100604.14;104751;1281;68130;-72
2022/01/13 06:27:33;;;;;;;7.60;2.60;;;;;;;3.54;100.00;100610.95;105032;1280;70595;-71
2022/01/13 06:31:21;;;;;;;7.30;2.40;;;;;;;3.53;100.00;100606.98;104411;1280;60025;-73
2022/01/13 06:34:35;;;;;;;6.80;2.00;;;;;;;3.52;100.00;100602.11;105072;1274;59423;-73
2022/01/13 06:38:14;;;;;;;7.30;1.90;;;;;;;3.52;100.00;100598.95;105312;1274;70333;-75
2022/01/13 06:41:24;;;;;;;6.50;2.00;;;;;;;3.53;100.00;100600.67;105137;1275;65840;-72
2022/01/13 06:45:02;;;;;;;5.00;1.60;;;;;;;3.53;100.00;100605.41;105385;1274;71650;-74
2022/01/13 06:49:06;;;;;;;5.70;1.90;;;;;;;3.55;100.00;100620.73;104992;1280;59952;-73
2022/01/13 06:52:28;;;;;;;6.40;1.70;;;;;;;3.55;100.00;100610.76;104705;1280;59382;-73
2022/01/13 06:56:23;;;;;;;4.90;1.40;;;;;;;3.56;100.00;100605.42;105225;1279;71533;-72
2022/01/13 06:59:40;;;;;;;5.40;1.60;;;;;;;3.57;100.00;100610.30;104712;1279;67949;-72
2022/01/13 07:04:14;;;;;;;5.50;1.70;;;;;;;3.60;100.00;100622.33;104866;1278;70467;-72
2022/01/13 07:13:29;;;;;;;4.80;1.20;;;;;;;3.68;100.00;100615.35;102887;1297;1003476;-73
2022/01/13 07:17:04;;;;;;;6.10;1.90;;;;;;;3.73;100.00;100607.58;103587;1300;71577;-73
2022/01/13 07:20:57;;;;;;;7.20;1.90;;;;;;;3.78;100.00;100616.69;102966;1300;68702;-73
2022/01/13 07:24:13;;;;;;;6.70;2.00;;;;;;;3.82;100.00;100622.85;102894;1294;73491;-73
2022/01/13 07:27:28;;;;;;;;;;;;;;;;;;;;;
2022/01/13 07:31:23;;;;;;;6.80;1.70;;;;;;;3.87;100.00;100621.77;103353;1294;60639;-74
2022/01/13 07:34:52;;;;;;;7.00;2.00;;;;;;;3.88;100.00;100617.84;102838;1299;69438;-75
2022/01/13 07:37:59;;;;;;;5.90;1.80;;;;;;;3.94;100.00;100612.00;103380;1294;66757;-75
2022/01/13 07:41:09;;;;;;;5.50;1.80;;;;;;;3.97;100.00;100603.43;103177;1291;73116;-75
2022/01/13 07:44:04;;;;;;;7.50;2.40;;;;;;;4.01;100.00;100604.00;104285;1284;59214;-75
2022/01/13 07:47:03;;;;;;;7.50;2.50;;;;;;;4.05;100.00;100591.69;104013;1285;60755;-74
2022/01/13 07:49:53;;;;;;;8.60;2.40;;;;;;;4.07;100.00;100606.86;104055;1284;70164;-74
2022/01/13 07:53:10;;;;;;;10.40;2.60;;;;;;;4.12;100.00;100607.92;104640;1280;65918;-73
2022/01/13 07:56:02;;;;;;;6.50;2.10;;;;;;;4.14;100.00;100612.77;104802;1281;72004;-74
2022/01/13 07:58:58;;;;;;;10.10;2.70;;;;;;;4.17;100.00;100612.79;104195;1280;60225;-74
2022/01/13 08:01:52;;;;;;;8.40;2.30;;;;;;;4.18;100.00;100609.94;104434;1283;59454;-74
2022/01/13 08:04:51;;;;;;;9.60;2.50;;;;;;;4.22;100.00;100612.57;104658;1280;70733;-74
2022/01/13 08:07:53;;;;;;;11.90;2.60;;;;;;;4.24;100.00;100623.02;104432;1280;68144;-74
2022/01/13 08:10:46;;;;;;;7.50;2.60;;;;;;;4.27;100.00;100607.80;104374;1277;71614;-74
2022/01/13 08:13:37;;;;;;;7.90;2.50;;;;;;;4.30;100.00;100599.94;105114;1274;60065;-74
2022/01/13 08:16:33;;;;;;;11.40;2.70;;;;;;;4.33;100.00;100599.13;105230;1274;59430;-74
2022/01/13 08:19:48;;;;;;;8.80;2.80;;;;;;;4.34;100.00;100594.87;104797;1274;70070;-74
2022/01/13 08:22:42;;;;;;;8.90;3.10;;;;;;;4.36;100.00;100597.95;105291;1274;68534;-75
2022/01/13 08:25:32;;;;;;;9.30;2.90;;;;;;;4.39;100.00;100597.48;105245;1274;73083;-72
2022/01/13 08:28:22;;;;;;;10.10;3.40;;;;;;;4.44;100.00;100592.48;105007;1273;59313;-73
2022/01/13 08:31:21;;;;;;;14.20;4.40;;;;;;;4.48;100.00;100590.92;105198;1274;59317;-74
2022/01/13 08:34:33;;;;;;;11.90;4.20;;;;;;;4.50;100.00;100589.05;105099;1274;72034;-68
2022/01/13 08:37:22;;;;;;;13.30;3.80;;;;;;;4.51;100.00;100590.61;105000;1274;67064;-70
2022/01/13 08:40:14;;;;;;;14.20;4.00;;;;;;;4.54;100.00;100591.16;104894;1274;71926;-68
2022/01/13 08:43:04;;;;;;;11.50;3.60;;;;;;;4.57;100.00;100598.58;104889;1274;59318;-69
2022/01/13 08:45:53;;;;;;;13.30;3.30;;;;;;;4.61;100.00;100596.31;104761;1274;60775;-70
2022/01/13 08:48:42;;;;;;;14.00;3.90;;;;;;;4.65;100.00;100594.04;104875;1274;73260;-69
2022/01/13 08:51:36;;;;;;;12.90;3.80;;;;;;;4.69;100.00;100601.09;104876;1274;68298;-68
2022/01/13 08:54:27;;;;;;;15.30;4.00;;;;;;;4.72;100.00;100606.88;104880;1274;72682;-68
2022/01/13 08:57:17;;;;;;;14.40;4.70;;;;;;;4.74;100.00;100607.17;104933;1274;59407;-70
2022/01/13 09:00:09;;;;;;;12.70;4.10;;;;;;;4.74;100.00;100603.11;104930;1274;59540;-70
2022/01/13 09:03:01;;;;;;;16.90;4.90;;;;;;;4.74;100.00;100608.55;105074;1274;71094;-69
2022/01/13 09:05:50;;;;;;;10.30;3.40;;;;;;;4.74;100.00;100599.77;105038;1274;68168;-70
2022/01/13 09:08:41;;;;;;;10.30;3.60;;;;;;;4.74;100.00;100603.81;105321;1274;71900;-70
2022/01/13 09:11:29;;;;;;;11.10;4.20;;;;;;;4.73;100.00;100602.97;104901;1274;59361;-69
2022/01/13 09:14:26;;;;;;;11.90;3.70;;;;;;;4.73;100.00;100598.39;104626;1273;59371;-68
2022/01/13 09:17:22;;;;;;;10.40;3.90;;;;;;;4.71;100.00;100604.66;105116;1273;72301;-68
2022/01/13 09:20:15;;;;;;;10.40;3.60;;;;;;;4.71;100.00;100603.42;104214;1274;1003499;-72
2022/01/13 09:23:19;;;;;;;14.00;4.60;;;;;;;4.71;100.00;100595.20;105275;1273;70687;-73
2022/01/13 09:26:29;;;;;;;11.70;3.90;;;;;;;4.71;100.00;100594.10;104959;1274;59693;-73
2022/01/13 09:33:16;;;;;;;14.70;3.80;;;;;;;4.71;100.00;100580.06;104535;1282;71439;-73
2022/01/13 09:36:41;;;;;;;11.90;3.60;;;;;;;4.71;100.00;100572.83;104373;1282;67081;-70
2022/01/13 09:39:35;;;;;;;15.20;4.30;;;;;;;4.72;100.00;100566.63;104238;1281;71973;-70
2022/01/13 09:42:41;;;;;;;13.20;4.10;;;;;;;4.72;100.00;100568.21;104700;1281;60172;-70
2022/01/13 09:45:37;;;;;;;13.00;4.00;;;;;;;4.72;100.00;100560.14;104527;1281;59327;-70
2022/01/13 09:48:40;;;;;;;13.70;4.20;;;;;;;4.73;100.00;100550.22;104494;1281;72604;-69
2022/01/13 09:52:01;;;;;;;11.90;4.10;;;;;;;4.76;100.00;100545.00;104713;1280;67251;-70
2022/01/13 09:55:42;;;;;;;13.50;4.30;;;;;;;4.75;100.00;100558.77;104700;1281;71733;-70
2022/01/13 09:59:11;;;;;;;14.10;4.30;;;;;;;4.75;100.00;100554.02;104370;1281;59366;-71
2022/01/13 10:02:26;;;;;;;13.40;4.10;;;;;;;4.74;100.00;100560.20;104586;1281;60687;-70
2022/01/13 10:05:23;;;;;;;9.50;3.60;;;;;;;4.75;100.00;100551.22;104522;1281;71410;-69
2022/01/13 10:08:50;;;;;;;10.50;3.70;;;;;;;4.74;100.00;100552.48;104453;1281;66873;-70
2022/01/13 10:11:56;;;;;;;11.10;3.00;;;;;;;4.74;100.00;100554.74;105464;1274;72736;-69
2022/01/13 10:19:08;;;;;;;13.80;4.20;;;;;;;4.74;100.00;100557.57;105964;1274;59439;-74
2022/01/13 10:22:46;;;;;;;13.20;4.50;;;;;;;4.74;100.00;100560.91;105810;1274;71418;-71
2022/01/13 10:25:43;;;;;;;9.50;3.20;;;;;;;4.75;100.00;100558.61;105425;1274;66902;-71
2022/01/13 10:28:37;;;;;;;12.00;3.60;;;;;;;4.74;100.00;100554.40;105335;1274;71820;-69
2022/01/13 10:32:38;;;;;;;11.50;4.30;;;;;;;4.73;100.00;100537.21;105564;1274;61079;-68
2022/01/13 10:35:34;;;;;;;11.30;3.40;;;;;;;4.76;100.00;100538.33;105140;1274;59751;-69
2022/01/13 10:39:00;;;;;;;12.20;3.50;;;;;;;4.80;100.00;100540.08;105116;1274;71183;-72
2022/01/13 10:42:14;;;;;;;9.90;3.70;;;;;;;4.78;100.00;100532.95;105138;1274;68781;-70
2022/01/13 10:51:35;;;;;;;11.60;3.30;;;;;;;4.73;100.00;100529.83;105300;1277;59458;-72
2022/01/13 10:55:33;;;;;;;12.00;3.50;;;;;;;4.72;100.00;100526.72;104555;1278;59416;-72
2022/01/13 10:58:57;;;;;;;11.50;3.50;;;;;;;4.72;100.00;100510.71;104934;1277;71068;-71
2022/01/13 11:02:56;;;;;;;12.30;3.80;;;;;;;4.72;100.00;100512.14;104757;1277;69867;-73
2022/01/13 11:06:28;;;;;;;8.90;3.20;;;;;;;4.73;100.00;100513.13;105020;1277;71828;-72
2022/01/13 11:09:21;;;;;;;10.90;2.70;;;;;;;4.74;100.00;100510.30;104843;1277;59552;-72
2022/01/13 11:12:33;;;;;;;10.20;3.20;;;;;;;4.73;100.00;100507.88;105042;1277;60495;-72
2022/01/13 11:16:08;;;;;;;12.20;3.80;;;;;;;4.72;100.00;100503.52;104824;1277;73868;-72
2022/01/13 11:19:12;;;;;;;11.90;3.50;;;;;;;4.72;100.00;100505.65;105158;1277;67955;-70
2022/01/13 11:22:05;;;;;;;14.80;4.30;;;;;;;4.74;100.00;100508.68;105056;1274;72277;-69
2022/01/13 11:29:21;;;;;;;;;;;;;;;;;;;;;
2022/01/13 11:32:23;;;;;;;16.00;4.10;;;;;;;4.84;100.00;100513.19;105086;1274;71167;-71
2022/01/13 11:35:32;;;;;;;14.40;4.00;;;;;;;4.85;100.00;100521.23;104906;1274;68485;-67
2022/01/13 11:38:32;;;;;;;16.10;4.50;;;;;;;4.85;100.00;100511.17;105450;1272;72045;-69
2022/01/13 11:42:26;;;;;;;12.30;4.10;;;;;;;4.85;100.00;100519.83;105072;1274;59386;-69
2022/01/13 11:45:53;;;;;;;12.20;2.90;;;;;;;4.85;100.00;100521.76;105082;1274;60943;-69
2022/01/13 11:49:08;;;;;;;12.70;4.30;;;;;;;4.86;100.00;100527.48;105098;1275;73127;-70
2022/01/13 11:53:29;;;;;;;11.10;3.10;;;;;;;4.89;100.00;100527.89;105437;1274;67966;-74
2022/01/13 12:00:00;;;;;;;11.10;3.00;;;;;;;4.90;100.00;100527.64;105290;1274;59833;-70
2022/01/13 12:03:46;;;;;;;11.40;3.30;;;;;;;4.91;100.00;100526.19;105256;1273;60513;-70
2022/01/13 12:06:52;;;;;;;11.10;3.20;;;;;;;4.91;100.00;100520.38;105153;1274;71580;-71
2022/01/13 12:09:46;;;;;;;10.40;3.70;;;;;;;4.93;100.00;100505.00;105293;1274;67054;-68
2022/01/13 12:12:39;;;;;;;12.50;3.40;;;;;;;4.95;100.00;100493.67;104808;1274;73061;-68
2022/01/13 12:16:49;;;;;;;12.30;3.90;;;;;;;4.98;100.00;100465.42;105329;1274;59905;-69
2022/01/13 12:24:53;;;;;;;12.60;3.40;;;;;;;5.00;100.00;100461.45;105212;1274;72559;-69
2022/01/13 12:27:52;;;;;;;11.60;4.10;;;;;;;4.98;100.00;100454.67;105044;1274;68433;-69
2022/01/13 12:31:32;;;;;;;10.10;3.50;;;;;;;4.95;100.00;100441.81;104901;1274;70823;-69
2022/01/13 12:34:33;;;;;;;13.00;3.80;;;;;;;4.96;100.00;100435.77;105254;1274;60105;-69
2022/01/13 12:37:28;;;;;;;9.90;3.20;;;;;;;4.95;100.00;100439.31;105295;1274;60887;-71
2022/01/13 12:41:02;;;;;;;14.00;3.40;;;;;;;4.97;100.00;100442.58;105335;1272;72442;-69
2022/01/13 12:45:27;;;;;;;13.10;3.60;;;;;;;4.99;100.00;100444.09;105253;1274;67036;-70
2022/01/13 12:47:35;;;;;;;12.50;3.70;;;;;;;4.97;100.00;100450.32;105231;1272;71523;-72
2022/01/13 12:50:39;;;;;;;12.50;3.10;;;;;;;4.95;100.00;100436.16;104980;1274;59863;-70
2022/01/13 12:53:48;;;;;;;11.00;3.70;;;;;;;4.93;100.00;100443.81;105529;1274;60323;-69
2022/01/13 12:57:10;;;;;;;11.80;3.40;;;;;;;4.91;100.00;100449.37;105268;1274;73722;-67
2022/01/13 13:00:19;;;;;;;13.80;3.50;;;;;;;4.88;100.00;100433.86;105137;1273;67074;-69
2022/01/13 13:03:18;;;;;;;11.20;2.90;;;;;;;4.85;100.00;100429.24;105326;1274;73267;-68
2022/01/13 13:06:22;;;;;;;11.20;3.10;;;;;;;4.84;100.00;100420.89;105221;1274;59714;-69
2022/01/13 13:10:07;;;;;;;10.10;3.00;;;;;;;4.83;100.00;100426.21;105251;1271;59659;-69
2022/01/13 13:13:19;;;;;;;10.60;2.90;;;;;;;4.85;100.00;100449.13;105280;1274;71478;-70
2022/01/13 13:17:33;;;;;;;12.30;3.20;;;;;;;4.83;100.00;100447.98;105348;1271;66847;-69
2022/01/13 13:43:08;;;;;;;;;;;;;;;;;;;;;
2022/01/13 13:48:32;;;;;;;14.80;3.50;;;;;;;4.87;100.00;100399.27;102928;1303;72813;-72
2022/01/13 14:08:56;;;;;;;17.20;4.00;;;;;;;4.94;100.00;100384.17;102519;1302;69439;-74
2022/01/13 14:13:58;;;;;;;;;;;;;;;;;;;;;
2022/01/13 14:49:46;;;;;;;15.00;4.10;;;;;;;4.95;100.00;100369.69;103996;1290;59635;-70
2022/01/13 14:53:02;;;;;;;16.00;3.80;;;;;;;4.96;100.00;100380.03;104670;1288;72360;-70
2022/01/13 14:56:59;;;;;;;15.80;3.80;;;;;;;4.96;100.00;100361.91;100067;1287;67491;-71
2022/01/13 15:00:02;;;;;;;;;;;;;;;;;;;;;
2022/01/13 15:03:25;;;;;;;16.80;4.00;;;;;;;5.01;100.00;100357.98;103759;1287;59448;-70
2022/01/13 15:12:43;;;;;;;16.40;3.50;;;;;;;5.00;100.00;100366.28;104758;1281;66891;-71
2022/01/13 15:16:30;;;;;;;17.30;4.40;;;;;;;5.00;100.00;100366.13;104593;1281;71971;-70
2022/01/13 15:21:23;;;;;;;10.90;4.10;;;;;;;5.01;100.00;100368.02;104589;1282;59838;-70
2022/01/13 15:24:13;;;;;;;15.80;4.40;;;;;;;5.01;100.00;100356.92;105071;1282;59351;-71
2022/01/13 15:28:48;;;;;;;13.40;3.40;;;;;;;5.03;100.00;100359.30;104404;1287;72609;-71
2022/01/13 15:43:45;;;;;;;12.60;3.60;;;;;;;5.10;100.00;100360.85;103271;1293;59473;-70
2022/01/13 15:46:56;;;;;;;18.60;4.00;;;;;;;5.10;100.00;100359.64;104225;1281;61503;-69
2022/01/13 16:04:46;;;;;;;13.90;3.50;;;;;;;5.16;100.00;100370.40;104495;1281;59441;-69
2022/01/13 16:08:43;;;;;;;11.00;2.90;;;;;;;5.19;100.00;100355.50;104689;1281;59456;-70
2022/01/13 16:18:14;;;;;;;12.40;3.10;;;;;;;5.25;99.69;100340.56;105159;1274;67989;-72
2022/01/13 16:27:36;;;;;;;13.40;3.30;;;;;;;5.26;99.93;100335.44;105969;1272;59919;-71
2022/01/13 16:32:10;;;;;;;;;;;;;;;;;;;;;
2022/01/13 16:36:52;;;;;;;17.70;3.10;;;;;;;5.27;99.82;100334.86;105319;1272;71806;-70
2022/01/13 16:41:10;;;;;;;13.10;2.80;;;;;;;5.29;99.83;100342.48;105836;1274;65867;-70
2022/01/13 16:45:27;;;;;;;16.80;4.10;;;;;;;5.35;99.58;100340.59;105344;1273;72122;-70
2022/01/13 16:49:00;;;;;;;13.90;3.40;;;;;;;5.38;99.38;100336.05;105247;1273;59742;-70
2022/01/13 16:53:22;;;;;;;18.30;3.30;;;;;;;5.39;98.76;100333.00;105363;1274;60717;-70
2022/01/13 16:57:43;;;;;;;13.20;2.70;;;;;;;5.41;98.88;100330.58;105330;1273;72363;-69
2022/01/13 17:09:42;;;;;;;17.00;3.70;;;;;;;5.36;98.43;100321.57;104597;1286;59673;-70
2022/01/13 17:14:53;;;;;;;;;;;;;;;;;;;;;
2022/01/13 17:23:18;;;;;;;16.90;2.70;;;;;;;5.21;98.18;100314.93;104558;1281;70533;-70
2022/01/13 17:42:26;;;;;;;11.10;2.80;;;;;;;5.21;97.55;100295.95;102207;1306;67941;-71
2022/01/13 17:52:07;;;;;;;11.70;3.40;;;;;;;5.25;97.55;100290.98;101616;1315;60322;-69
2022/01/13 17:56:26;;;;;;;13.60;3.70;;;;;;;5.25;97.37;100272.67;100750;1318;59450;-69
2022/01/13 17:59:28;;;;;;;14.00;3.50;;;;;;;5.25;97.28;100271.99;101573;1314;71600;-70
2022/01/13 18:12:55;;;;;;;12.90;2.90;;;;;;;5.31;96.81;100254.23;102049;1300;60358;-69
2022/01/13 18:23:00;;;;;;;;;;;;;;;;;;;;;
2022/01/13 18:28:10;;;;;;;13.30;2.70;;;;;;;5.39;96.24;100260.52;102928;1292;69397;-70
2022/01/13 18:46:15;;;;;;;11.80;2.80;;;;;;;5.43;95.86;100245.50;102393;1303;72095;-70
2022/01/13 18:50:30;;;;;;;16.60;2.40;;;;;;;5.43;95.80;100245.15;103329;1297;68274;-70
2022/01/13 18:59:39;;;;;;;12.70;2.90;;;;;;;5.48;95.41;100217.31;102610;1300;61119;-69
2022/01/13 19:03:39;;;;;;;12.30;2.80;;;;;;;5.46;95.20;100209.95;102816;1300;60650;-68
2022/01/13 19:17:05;;;;;;;12.20;2.60;;;;;;;5.45;94.62;100200.71;103249;1293;73180;-70
2022/01/13 19:46:53;;;;;;;9.80;2.10;;;;;;;5.43;94.23;100191.32;102600;1300;59693;-69
2022/01/13 19:56:29;;;;;;;11.20;2.10;;;;;;;5.46;93.62;100187.45;103233;1291;73092;-68
2022/01/13 20:00:33;;;;;;;15.80;3.20;;;;;;;5.48;92.90;100185.06;103020;1297;68147;-69
2022/01/13 20:04:36;;;;;;;8.70;2.10;;;;;;;5.50;93.07;100190.10;103743;1299;71660;-69
2022/01/13 20:07:56;;;;;;;16.10;2.70;;;;;;;5.51;92.96;100191.62;102687;1296;59903;-69
2022/01/13 20:16:20;;;;;;;8.30;2.60;;;;;;;5.50;91.76;100181.82;103422;1294;70664;-69
2022/01/13 20:20:09;;;;;;;12.50;2.50;;;;;;;5.48;92.02;100188.59;104293;1291;68066;-70
2022/01/13 20:24:20;;;;;;;8.50;2.30;;;;;;;5.45;92.23;100186.77;104117;1287;72860;-71
2022/01/13 20:29:27;;;;;;;11.00;2.30;;;;;;;5.45;92.21;100189.80;104329;1281;59337;-70
2022/01/13 20:32:43;;;;;;;9.80;1.90;;;;;;;5.41;92.46;100181.77;104457;1278;60638;-69
2022/01/13 20:37:49;;;;;;;10.90;2.20;;;;;;;5.37;92.23;100179.34;104474;1277;71063;-69
2022/01/13 20:41:31;;;;;;;14.50;2.20;;;;;;;5.35;92.86;100183.11;105031;1277;68165;-68
2022/01/13 20:45:38;;;;;;;10.10;2.10;;;;;;;5.33;93.02;100179.21;104478;1277;74319;-68
2022/01/13 20:55:38;;;;;;;;;;;;;;;;;;;;;
2022/01/13 21:04:25;;;;;;;9.40;2.60;;;;;;;5.20;93.71;100150.48;104880;1273;69390;-69
2022/01/13 21:08:15;;;;;;;;;;;;;;;;;;;;;
2022/01/13 21:11:27;;;;;;;8.00;2.10;;;;;;;5.15;94.70;100155.88;105160;1274;59617;-69
2022/01/13 21:14:21;;;;;;;9.30;2.50;;;;;;;5.15;94.52;100161.67;104639;1275;60341;-70
2022/01/13 21:17:47;;;;;;;9.80;2.50;;;;;;;5.15;94.48;100168.58;104868;1274;70570;-69
2022/01/13 21:26:27;;;;;;;10.40;2.30;;;;;;;5.18;94.51;100186.17;105107;1276;72424;-69
2022/01/13 21:30:10;;;;;;;9.00;2.10;;;;;;;5.20;93.85;100199.59;103986;1284;59302;-70
2022/01/13 21:38:06;;;;;;;11.80;2.10;;;;;;;5.26;93.73;100189.25;104237;1284;69528;-69
2022/01/13 21:41:55;;;;;;;7.90;2.10;;;;;;;5.27;93.75;100184.77;104184;1282;67106;-69
2022/01/13 21:59:39;;;;;;;11.20;2.10;;;;;;;5.25;93.46;100185.96;103304;1290;72030;-69
2022/01/13 22:02:40;;;;;;;8.50;2.10;;;;;;;5.26;93.24;100196.45;103512;1290;68226;-70
2022/01/13 22:06:47;;;;;;;10.90;2.00;;;;;;;5.28;93.38;100182.64;103967;1285;72725;-70
2022/01/13 22:10:21;;;;;;;;;;;;;;;;;;;;;
2022/01/13 22:14:05;;;;;;;11.90;2.10;;;;;;;5.30;93.32;100142.39;103929;1283;59533;-70
2022/01/13 22:17:36;;;;;;;10.60;2.10;;;;;;;5.31;93.46;100150.07;104165;1284;72372;-69
2022/01/13 22:22:25;;;;;;;9.70;2.20;;;;;;;5.31;93.32;100125.27;104102;1284;68255;-69
2022/01/13 22:30:28;;;;;;;11.20;2.10;;;;;;;5.33;93.19;100092.11;104465;1278;59648;-70
2022/01/13 22:34:23;;;;;;;8.40;1.70;;;;;;;5.32;92.60;100086.89;103992;1282;60903;-69
2022/01/13 22:37:23;;;;;;;8.10;2.00;;;;;;;5.31;92.70;100087.27;103984;1282;69608;-69
2022/01/13 22:41:23;;;;;;;11.40;2.40;;;;;;;5.29;92.76;100092.81;103818;1285;68194;-69
2022/01/13 22:44:46;;;;;;;8.30;2.40;;;;;;;5.27;92.90;100080.09;103803;1285;74185;-70
2022/01/13 22:47:53;;;;;;;8.50;2.00;;;;;;;5.26;92.41;100095.49;103844;1285;59491;-69
2022/01/13 22:50:53;;;;;;;5.90;1.80;;;;;;;5.26;92.37;100076.61;103733;1285;60567;-69
2022/01/13 22:54:32;;;;;;;9.50;2.10;;;;;;;5.25;92.42;100082.33;103900;1285;71646;-70
2022/01/13 22:59:10;;;;;;;8.70;1.80;;;;;;;5.22;92.32;100074.38;103795;1288;69521;-70
2022/01/13 23:05:54;;;;;;;11.00;2.20;;;;;;;5.18;91.96;100040.16;104501;1285;59227;-71
2022/01/13 23:08:53;;;;;;;11.20;2.10;;;;;;;5.17;92.02;100031.59;104439;1282;59428;-70
2022/01/13 23:11:58;;;;;;;11.20;2.10;;;;;;;5.15;92.27;100028.88;104438;1282;70405;-70
2022/01/13 23:24:27;;;;;;;9.60;1.80;;;;;;;5.13;93.91;100002.44;105069;1274;59411;-70
2022/01/13 23:28:19;;;;;;;7.70;1.90;;;;;;;5.14;94.27;100008.03;104782;1274;71788;-70
2022/01/13 23:31:18;;;;;;;11.70;2.30;;;;;;;5.14;94.88;100006.08;105069;1274;66723;-68
2022/01/13 23:34:21;;;;;;;9.30;2.10;;;;;;;5.16;95.04;100001.59;104551;1274;73256;-68
2022/01/13 23:37:28;;;;;;;9.20;2.20;;;;;;;5.16;95.43;100006.66;104892;1275;59977;-68